createdAt,value
2018-11-02T00:00:52.894Z,40.46
2018-11-02T00:01:55.565Z,40.03
2018-11-02T00:02:58.202Z,40.09
2018-11-02T00:04:01.134Z,40.36
2018-11-02T00:05:03.918Z,40.04
2018-11-02T00:06:06.596Z,40.56
2018-11-02T00:07:09.262Z,40.38
2018-11-02T00:08:11.912Z,39.98
2018-11-02T00:09:14.873Z,40.19
2018-11-02T00:10:17.530Z,40.54
2018-11-02T00:11:20.549Z,40.23
2018-11-02T00:12:23.219Z,40.12
2018-11-02T00:13:25.881Z,39.91
2018-11-02T00:14:28.932Z,40.58
2018-11-02T00:15:31.578Z,40.06
2018-11-02T00:16:34.226Z,40.48
2018-11-02T00:17:37.006Z,39.96
2018-11-02T00:18:39.750Z,39.90
2018-11-02T00:19:42.686Z,40.12
2018-11-02T00:20:45.326Z,40.46
2018-11-02T00:21:47.970Z,40.13
2018-11-02T00:22:50.635Z,40.42
2018-11-02T00:23:53.286Z,40.47
2018-11-02T00:24:56.215Z,40.47
2018-11-02T00:25:58.866Z,40.23
2018-11-02T00:27:01.915Z,40.47
2018-11-02T00:28:04.938Z,40.05
2018-11-02T00:29:07.670Z,40.35
2018-11-02T00:30:10.598Z,40.34
2018-11-02T00:31:13.270Z,40.54
2018-11-02T00:32:15.915Z,40.46
2018-11-02T00:33:18.559Z,40.50
2018-11-02T00:34:21.206Z,40.50
2018-11-02T00:35:24.249Z,39.98
2018-11-02T00:36:26.906Z,40.28
2018-11-02T00:37:29.570Z,40.49
2018-11-02T00:38:32.230Z,40.04
2018-11-02T00:39:34.895Z,40.31
2018-11-02T00:40:37.547Z,40.06
2018-11-02T00:41:40.236Z,40.51
2018-11-02T00:42:42.894Z,40.04
2018-11-02T00:43:45.545Z,40.01
2018-11-02T00:44:48.214Z,40.57
2018-11-02T00:45:51.014Z,40.09
2018-11-02T00:46:53.785Z,40.24
2018-11-02T00:47:56.438Z,40.00
2018-11-02T00:48:59.079Z,40.33
2018-11-02T00:50:01.722Z,40.54
2018-11-02T00:51:04.906Z,40.36
2018-11-02T00:52:07.554Z,40.22
2018-11-02T00:53:10.199Z,40.44
2018-11-02T00:54:12.861Z,40.50
2018-11-02T00:55:15.595Z,40.17
2018-11-02T00:56:18.554Z,40.09
2018-11-02T00:57:21.198Z,40.29
2018-11-02T00:58:23.846Z,40.27
2018-11-02T00:59:26.564Z,40.19
2018-11-02T01:00:29.183Z,40.51
2018-11-02T01:01:31.954Z,40.33
2018-11-02T01:02:34.610Z,40.62
2018-11-02T01:03:37.265Z,40.28
2018-11-02T01:04:39.919Z,40.53
2018-11-02T01:05:42.567Z,40.16
2018-11-02T01:06:45.494Z,40.27
2018-11-02T01:07:48.138Z,40.21
2018-11-02T01:08:50.786Z,40.20
2018-11-02T01:09:53.426Z,40.55
2018-11-02T01:10:56.079Z,40.54
2018-11-02T01:11:59.094Z,40.69
2018-11-02T01:13:01.770Z,40.21
2018-11-02T01:14:04.563Z,40.07
2018-11-02T01:15:08.774Z,40.23
2018-11-02T01:16:11.506Z,40.08
2018-11-02T01:17:14.440Z,40.73
2018-11-02T01:18:17.087Z,40.17
2018-11-02T01:19:24.366Z,40.77
2018-11-02T01:20:26.994Z,40.69
2018-11-02T01:21:29.651Z,40.23
2018-11-02T01:22:32.645Z,40.19
2018-11-02T01:23:35.394Z,40.74
2018-11-02T01:24:38.047Z,40.38
2018-11-02T01:25:40.687Z,40.77
2018-11-02T01:26:43.348Z,40.75
2018-11-02T01:27:46.269Z,40.49
2018-11-02T01:28:48.914Z,40.39
2018-11-02T01:29:51.558Z,40.40
2018-11-02T01:30:54.222Z,40.82
2018-11-02T01:31:57.039Z,40.72
2018-11-02T01:33:00.018Z,40.29
2018-11-02T01:34:02.726Z,40.36
2018-11-02T01:35:06.591Z,40.84
2018-11-02T01:36:10.087Z,40.66
2018-11-02T01:37:12.728Z,40.39
2018-11-02T01:38:15.678Z,40.85
2018-11-02T01:39:18.326Z,40.85
2018-11-02T01:40:20.966Z,40.97
2018-11-02T01:41:23.622Z,40.60
2018-11-02T01:42:26.266Z,40.29
2018-11-02T01:43:28.935Z,40.91
2018-11-02T01:44:31.587Z,40.48
2018-11-02T01:45:34.234Z,40.56
2018-11-02T01:46:36.892Z,40.53
2018-11-02T01:47:39.550Z,40.98
2018-11-02T01:48:43.186Z,40.82
2018-11-02T01:49:45.858Z,40.82
2018-11-02T01:50:48.538Z,40.49
2018-11-02T01:51:51.198Z,40.86
2018-11-02T01:52:53.875Z,40.87
2018-11-02T01:53:56.821Z,40.84
2018-11-02T01:54:59.462Z,40.90
2018-11-02T01:56:02.145Z,40.26
2018-11-02T01:57:05.046Z,40.53
2018-11-02T01:58:07.762Z,40.72
2018-11-02T01:59:10.694Z,40.58
2018-11-02T02:00:13.343Z,40.99
2018-11-02T02:01:16.031Z,40.77
2018-11-02T02:02:18.680Z,40.47
2018-11-02T02:03:21.340Z,40.80
2018-11-02T02:04:24.272Z,40.61
2018-11-02T02:05:26.914Z,40.83
2018-11-02T02:06:29.568Z,40.80
2018-11-02T02:07:32.214Z,41.00
2018-11-02T02:08:34.919Z,40.98
2018-11-02T02:09:37.574Z,40.87
2018-11-02T02:10:40.226Z,40.99
2018-11-02T02:11:42.943Z,40.53
2018-11-02T02:12:45.626Z,40.47
2018-11-02T02:13:48.277Z,40.58
2018-11-02T02:14:50.938Z,40.68
2018-11-02T02:15:53.587Z,41.06
2018-11-02T02:16:56.230Z,41.03
2018-11-02T02:17:58.885Z,40.78
2018-11-02T02:19:01.542Z,40.97
2018-11-02T02:20:07.658Z,40.67
2018-11-02T02:21:10.322Z,40.75
2018-11-02T02:22:12.986Z,41.18
2018-11-02T02:23:15.634Z,40.74
2018-11-02T02:24:18.312Z,40.83
2018-11-02T02:25:21.262Z,41.22
2018-11-02T02:26:23.902Z,41.13
2018-11-02T02:27:26.581Z,41.46
2018-11-02T02:28:29.231Z,41.30
2018-11-02T02:29:31.878Z,40.90
2018-11-02T02:30:34.855Z,40.89
2018-11-02T02:31:37.531Z,41.30
2018-11-02T02:32:40.202Z,40.78
2018-11-02T02:33:43.062Z,40.87
2018-11-02T02:34:45.698Z,41.30
2018-11-02T02:35:48.662Z,40.88
2018-11-02T02:36:51.312Z,41.27
2018-11-02T02:37:53.968Z,41.44
2018-11-02T02:38:56.615Z,41.23
2018-11-02T02:39:59.274Z,41.02
2018-11-02T02:41:02.210Z,40.86
2018-11-02T02:42:04.986Z,41.11
2018-11-02T02:43:07.635Z,41.37
2018-11-02T02:44:10.417Z,41.14
2018-11-02T02:45:13.052Z,40.79
2018-11-02T02:46:16.007Z,40.75
2018-11-02T02:47:18.661Z,40.92
2018-11-02T02:48:21.323Z,40.85
2018-11-02T02:49:24.014Z,41.03
2018-11-02T02:50:26.659Z,41.19
2018-11-02T02:51:29.343Z,41.11
2018-11-02T02:52:31.986Z,41.11
2018-11-02T02:53:34.649Z,40.55
2018-11-02T02:54:37.308Z,40.94
2018-11-02T02:55:39.965Z,40.66
2018-11-02T02:56:42.606Z,41.20
2018-11-02T02:57:45.250Z,41.25
2018-11-02T02:58:47.943Z,40.81
2018-11-02T02:59:50.579Z,40.78
2018-11-02T03:00:53.226Z,40.87
2018-11-02T03:01:56.202Z,40.71
2018-11-02T03:02:58.863Z,41.16
2018-11-02T03:04:01.518Z,40.83
2018-11-02T03:05:04.213Z,41.36
2018-11-02T03:06:07.039Z,40.92
2018-11-02T03:07:10.014Z,41.25
2018-11-02T03:08:12.721Z,41.51
2018-11-02T03:09:15.377Z,41.20
2018-11-02T03:10:18.094Z,41.63
2018-11-02T03:11:20.730Z,41.30
2018-11-02T03:12:23.710Z,41.32
2018-11-02T03:13:26.350Z,41.74
2018-11-02T03:14:28.990Z,41.77
2018-11-02T03:15:31.682Z,41.68
2018-11-02T03:16:34.327Z,41.73
2018-11-02T03:17:37.747Z,41.44
2018-11-02T03:18:40.486Z,41.38
2018-11-02T03:19:43.050Z,41.82
2018-11-02T03:20:45.830Z,41.97
2018-11-02T03:21:48.572Z,41.45
2018-11-02T03:22:51.522Z,42.00
2018-11-02T03:23:54.170Z,41.49
2018-11-02T03:24:56.841Z,41.41
2018-11-02T03:25:59.516Z,42.06
2018-11-02T03:27:02.232Z,41.78
2018-11-02T03:28:05.378Z,41.80
2018-11-02T03:29:08.142Z,42.19
2018-11-02T03:30:11.520Z,41.88
2018-11-02T03:31:14.169Z,41.72
2018-11-02T03:32:16.867Z,42.10
2018-11-02T03:33:19.510Z,42.13
2018-11-02T03:34:22.158Z,42.26
2018-11-02T03:35:24.814Z,42.27
2018-11-02T03:36:27.483Z,42.33
2018-11-02T03:37:30.146Z,41.79
2018-11-02T03:38:32.799Z,42.28
2018-11-02T03:39:35.446Z,42.02
2018-11-02T03:40:38.094Z,42.28
2018-11-02T03:41:41.301Z,41.86
2018-11-02T03:42:49.866Z,41.95
2018-11-02T03:43:52.802Z,41.92
2018-11-02T03:44:55.479Z,42.06
2018-11-02T03:45:58.142Z,42.36
2018-11-02T03:47:00.806Z,42.42
2018-11-02T03:48:03.503Z,41.96
2018-11-02T03:49:06.398Z,42.04
2018-11-02T03:50:10.486Z,41.95
2018-11-02T03:51:13.137Z,42.55
2018-11-02T03:52:15.778Z,42.04
2018-11-02T03:53:18.664Z,42.09
2018-11-02T03:54:21.663Z,42.55
2018-11-02T03:55:24.314Z,42.53
2018-11-02T03:56:26.995Z,42.13
2018-11-02T03:57:29.638Z,42.58
2018-11-02T03:58:32.285Z,42.62
2018-11-02T03:59:35.337Z,42.52
2018-11-02T04:00:38.693Z,42.13
2018-11-02T04:01:41.822Z,42.71
2018-11-02T04:02:44.460Z,42.35
2018-11-02T04:03:47.131Z,42.58
2018-11-02T04:04:50.115Z,42.48
2018-11-02T04:05:52.758Z,42.77
2018-11-02T04:06:55.451Z,42.41
2018-11-02T04:07:58.118Z,42.91
2018-11-02T04:09:00.798Z,42.86
2018-11-02T04:10:03.836Z,42.76
2018-11-02T04:11:06.486Z,42.41
2018-11-02T04:12:09.155Z,42.56
2018-11-02T04:13:11.801Z,42.57
2018-11-02T04:14:14.431Z,42.72
2018-11-02T04:15:17.118Z,42.87
2018-11-02T04:16:19.773Z,42.76
2018-11-02T04:17:22.422Z,42.77
2018-11-02T04:18:25.062Z,43.17
2018-11-02T04:19:27.722Z,42.70
2018-11-02T04:20:30.378Z,42.92
2018-11-02T04:21:36.989Z,43.08
2018-11-02T04:22:39.666Z,43.17
2018-11-02T04:23:42.338Z,43.19
2018-11-02T04:24:44.993Z,42.85
2018-11-02T04:25:47.950Z,43.26
2018-11-02T04:26:50.657Z,43.22
2018-11-02T04:27:53.310Z,43.37
2018-11-02T04:28:55.949Z,43.60
2018-11-02T04:29:58.622Z,43.17
2018-11-02T04:31:01.617Z,43.43
2018-11-02T04:32:04.515Z,43.61
2018-11-02T04:33:07.186Z,43.46
2018-11-02T04:34:09.920Z,43.60
2018-11-02T04:35:12.595Z,43.58
2018-11-02T04:36:15.566Z,43.40
2018-11-02T04:37:18.206Z,43.81
2018-11-02T04:38:20.839Z,43.83
2018-11-02T04:39:23.565Z,43.63
2018-11-02T04:40:26.157Z,43.70
2018-11-02T04:41:29.120Z,43.87
2018-11-02T04:42:31.798Z,43.90
2018-11-02T04:43:34.442Z,43.43
2018-11-02T04:44:37.094Z,43.48
2018-11-02T04:45:40.662Z,44.01
2018-11-02T04:46:43.602Z,43.96
2018-11-02T04:47:46.246Z,44.22
2018-11-02T04:48:48.896Z,44.16
2018-11-02T04:49:51.542Z,44.04
2018-11-02T04:50:54.266Z,44.05
2018-11-02T04:51:57.230Z,44.23
2018-11-02T04:52:59.879Z,43.92
2018-11-02T04:54:02.547Z,44.26
2018-11-02T04:55:06.650Z,43.74
2018-11-02T04:56:09.298Z,43.84
2018-11-02T04:57:12.318Z,44.05
2018-11-02T04:58:14.967Z,44.40
2018-11-02T04:59:17.629Z,44.49
2018-11-02T05:00:20.326Z,43.92
2018-11-02T05:01:23.094Z,43.98
2018-11-02T05:02:25.778Z,44.09
2018-11-02T05:03:28.455Z,44.08
2018-11-02T05:04:31.104Z,44.30
2018-11-02T05:05:33.739Z,44.47
2018-11-02T05:06:36.380Z,44.26
2018-11-02T05:07:39.028Z,44.53
2018-11-02T05:08:42.158Z,44.32
2018-11-02T05:09:45.205Z,44.57
2018-11-02T05:10:47.878Z,44.10
2018-11-02T05:11:50.563Z,44.16
2018-11-02T05:12:53.559Z,44.13
2018-11-02T05:13:56.214Z,44.51
2018-11-02T05:14:58.887Z,44.27
2018-11-02T05:16:01.538Z,44.04
2018-11-02T05:17:04.246Z,44.62
2018-11-02T05:18:07.174Z,44.55
2018-11-02T05:19:09.851Z,44.13
2018-11-02T05:20:12.506Z,44.58
2018-11-02T05:21:15.186Z,44.14
2018-11-02T05:22:17.832Z,44.08
2018-11-02T05:23:20.774Z,44.67
2018-11-02T05:24:23.420Z,44.19
2018-11-02T05:25:26.070Z,44.63
2018-11-02T05:26:28.718Z,44.55
2018-11-02T05:27:31.430Z,44.72
2018-11-02T05:28:34.658Z,44.56
2018-11-02T05:29:37.362Z,44.52
2018-11-02T05:30:40.009Z,44.73
2018-11-02T05:31:42.699Z,44.41
2018-11-02T05:32:45.406Z,44.63
2018-11-02T05:33:48.090Z,44.66
2018-11-02T05:34:50.754Z,44.68
2018-11-02T05:35:53.446Z,44.18
2018-11-02T05:36:56.098Z,44.68
2018-11-02T05:37:58.779Z,44.26
2018-11-02T05:39:01.782Z,44.16
2018-11-02T05:40:05.711Z,44.29
2018-11-02T05:41:08.394Z,44.37
2018-11-02T05:42:11.070Z,44.69
2018-11-02T05:43:13.734Z,44.83
2018-11-02T05:44:16.650Z,44.84
2018-11-02T05:45:19.550Z,44.75
2018-11-02T05:46:22.226Z,44.59
2018-11-02T05:47:24.948Z,44.46
2018-11-02T05:48:27.603Z,44.95
2018-11-02T05:49:30.362Z,45.00
2018-11-02T05:50:33.051Z,44.64
2018-11-02T05:51:35.734Z,44.60
2018-11-02T05:52:38.410Z,44.48
2018-11-02T05:53:41.066Z,44.44
2018-11-02T05:54:44.017Z,44.65
2018-11-02T05:55:46.682Z,44.89
2018-11-02T05:56:49.569Z,44.74
2018-11-02T05:57:52.242Z,44.83
2018-11-02T05:58:54.895Z,44.68
2018-11-02T05:59:57.870Z,44.96
2018-11-02T06:01:00.571Z,44.80
2018-11-02T06:02:03.258Z,45.07
2018-11-02T06:03:06.117Z,45.04
2018-11-02T06:04:08.782Z,44.91
2018-11-02T06:05:11.439Z,44.68
2018-11-02T06:06:14.094Z,44.69
2018-11-02T06:07:16.870Z,44.57
2018-11-02T06:08:19.530Z,44.93
2018-11-02T06:09:22.226Z,45.06
2018-11-02T06:10:25.188Z,44.91
2018-11-02T06:11:27.830Z,44.47
2018-11-02T06:12:30.486Z,44.60
2018-11-02T06:13:33.184Z,44.48
2018-11-02T06:14:35.850Z,44.58
2018-11-02T06:15:38.766Z,44.74
2018-11-02T06:16:41.491Z,44.87
2018-11-02T06:17:44.102Z,44.54
2018-11-02T06:18:46.798Z,44.44
2018-11-02T06:19:49.442Z,44.88
2018-11-02T06:20:52.474Z,44.53
2018-11-02T06:21:55.171Z,45.01
2018-11-02T06:22:57.826Z,45.09
2018-11-02T06:24:00.593Z,44.48
2018-11-02T06:25:03.331Z,44.80
2018-11-02T06:26:06.327Z,45.01
2018-11-02T06:27:09.015Z,45.08
2018-11-02T06:28:11.675Z,44.45
2018-11-02T06:29:14.327Z,44.77
2018-11-02T06:30:16.978Z,44.74
2018-11-02T06:31:19.680Z,44.86
2018-11-02T06:32:22.370Z,44.62
2018-11-02T06:33:24.992Z,45.04
2018-11-02T06:34:27.634Z,44.87
2018-11-02T06:35:30.938Z,45.13
2018-11-02T06:36:33.689Z,44.75
2018-11-02T06:37:36.322Z,44.61
2018-11-02T06:38:39.004Z,44.68
2018-11-02T06:39:41.662Z,45.04
2018-11-02T06:40:44.334Z,44.75
2018-11-02T06:41:47.278Z,44.85
2018-11-02T06:42:49.934Z,44.88
2018-11-02T06:43:52.603Z,45.23
2018-11-02T06:44:55.303Z,44.74
2018-11-02T06:45:57.949Z,44.86
2018-11-02T06:47:00.926Z,44.87
2018-11-02T06:48:03.610Z,44.73
2018-11-02T06:49:06.291Z,44.95
2018-11-02T06:50:09.030Z,44.99
2018-11-02T06:51:11.695Z,45.29
2018-11-02T06:52:14.487Z,45.36
2018-11-02T06:53:17.238Z,44.82
2018-11-02T06:54:19.913Z,45.39
2018-11-02T06:55:22.571Z,45.27
2018-11-02T06:56:25.219Z,45.28
2018-11-02T06:57:28.178Z,44.99
2018-11-02T06:58:30.941Z,45.21
2018-11-02T06:59:33.800Z,45.24
2018-11-02T07:00:36.321Z,45.33
2018-11-02T07:01:38.954Z,45.35
2018-11-02T07:02:41.959Z,44.84
2018-11-02T07:03:44.802Z,44.97
2018-11-02T07:04:47.446Z,45.15
2018-11-02T07:05:50.114Z,44.92
2018-11-02T07:06:59.392Z,45.02
2018-11-02T07:08:02.488Z,45.26
2018-11-02T07:09:07.183Z,45.07
2018-11-02T07:10:09.974Z,45.29
2018-11-02T07:11:12.639Z,45.05
2018-11-02T07:12:15.319Z,45.00
2018-11-02T07:13:18.461Z,45.33
2018-11-02T07:14:21.154Z,45.19
2018-11-02T07:15:23.794Z,44.89
2018-11-02T07:16:26.459Z,45.57
2018-11-02T07:17:29.131Z,45.22
2018-11-02T07:18:31.778Z,45.13
2018-11-02T07:19:34.526Z,45.02
2018-11-02T07:20:37.150Z,45.15
2018-11-02T07:21:39.850Z,45.46
2018-11-02T07:22:42.494Z,45.28
2018-11-02T07:23:45.417Z,45.38
2018-11-02T07:24:48.082Z,44.99
2018-11-02T07:25:50.754Z,45.06
2018-11-02T07:26:53.410Z,45.01
2018-11-02T07:27:56.080Z,45.64
2018-11-02T07:28:59.011Z,45.51
2018-11-02T07:30:01.678Z,45.60
2018-11-02T07:31:04.458Z,45.50
2018-11-02T07:32:07.106Z,45.28
2018-11-02T07:33:09.779Z,45.47
2018-11-02T07:34:12.745Z,45.15
2018-11-02T07:35:15.398Z,45.50
2018-11-02T07:36:18.119Z,45.53
2018-11-02T07:37:20.770Z,45.20
2018-11-02T07:38:23.433Z,45.13
2018-11-02T07:39:26.450Z,45.60
2018-11-02T07:40:29.099Z,45.04
2018-11-02T07:41:31.742Z,45.19
2018-11-02T07:42:34.406Z,45.12
2018-11-02T07:43:37.070Z,45.47
2018-11-02T07:44:40.094Z,45.14
2018-11-02T07:45:42.775Z,45.61
2018-11-02T07:46:45.419Z,45.06
2018-11-02T07:47:48.231Z,45.59
2018-11-02T07:48:50.754Z,45.05
2018-11-02T07:49:53.402Z,45.07
2018-11-02T07:50:56.062Z,45.50
2018-11-02T07:51:58.758Z,45.26
2018-11-02T07:53:01.442Z,45.63
2018-11-02T07:54:04.118Z,45.65
2018-11-02T07:55:08.831Z,45.63
2018-11-02T07:56:11.487Z,45.58
2018-11-02T07:57:14.151Z,45.73
2018-11-02T07:58:16.846Z,45.25
2018-11-02T07:59:19.458Z,45.61
2018-11-02T08:00:22.227Z,45.73
2018-11-02T08:01:25.158Z,45.64
2018-11-02T08:02:27.811Z,45.71
2018-11-02T08:03:30.523Z,45.72
2018-11-02T08:04:33.158Z,45.54
2018-11-02T08:05:36.139Z,45.74
2018-11-02T08:06:38.822Z,45.54
2018-11-02T08:07:41.518Z,45.77
2018-11-02T08:08:44.162Z,45.27
2018-11-02T08:09:46.805Z,45.75
2018-11-02T08:10:49.783Z,45.64
2018-11-02T08:11:52.474Z,45.41
2018-11-02T08:12:55.122Z,45.74
2018-11-02T08:13:57.827Z,45.20
2018-11-02T08:15:00.489Z,45.44
2018-11-02T08:16:03.486Z,45.71
2018-11-02T08:17:06.174Z,45.25
2018-11-02T08:18:08.839Z,45.52
2018-11-02T08:19:11.486Z,45.51
2018-11-02T08:20:14.126Z,45.25
2018-11-02T08:21:17.090Z,45.75
2018-11-02T08:22:19.730Z,45.72
2018-11-02T08:23:22.357Z,45.80
2018-11-02T08:24:25.142Z,45.29
2018-11-02T08:25:27.751Z,45.58
2018-11-02T08:26:30.745Z,45.84
2018-11-02T08:27:33.390Z,45.60
2018-11-02T08:28:36.049Z,45.38
2018-11-02T08:29:38.710Z,45.77
2018-11-02T08:30:41.366Z,45.67
2018-11-02T08:31:44.394Z,45.55
2018-11-02T08:32:47.042Z,45.20
2018-11-02T08:33:49.702Z,45.16
2018-11-02T08:34:52.330Z,45.54
2018-11-02T08:35:54.960Z,45.65
2018-11-02T08:36:57.938Z,45.71
2018-11-02T08:38:00.590Z,45.26
2018-11-02T08:39:03.718Z,45.52
2018-11-02T08:40:07.014Z,45.21
2018-11-02T08:41:09.686Z,45.41
2018-11-02T08:42:12.614Z,45.50
2018-11-02T08:43:15.246Z,45.25
2018-11-02T08:44:17.876Z,45.54
2018-11-02T08:45:20.520Z,45.70
2018-11-02T08:46:23.225Z,45.15
2018-11-02T08:47:25.850Z,45.56
2018-11-02T08:48:28.498Z,45.25
2018-11-02T08:49:31.174Z,45.66
2018-11-02T08:50:33.818Z,45.41
2018-11-02T08:51:36.460Z,45.51
2018-11-02T08:52:39.378Z,45.44
2018-11-02T08:53:42.022Z,45.53
2018-11-02T08:54:44.666Z,45.59
2018-11-02T08:55:47.374Z,45.56
2018-11-02T08:56:50.018Z,45.48
2018-11-02T08:57:53.038Z,45.57
2018-11-02T08:58:55.665Z,45.06
2018-11-02T08:59:58.318Z,45.51
2018-11-02T09:01:00.990Z,45.46
2018-11-02T09:02:03.677Z,45.03
2018-11-02T09:03:06.627Z,45.38
2018-11-02T09:04:09.268Z,45.48
2018-11-02T09:05:12.182Z,45.34
2018-11-02T09:06:14.655Z,45.69
2018-11-02T09:07:17.309Z,45.34
2018-11-02T09:08:20.242Z,45.17
2018-11-02T09:09:22.886Z,45.29
2018-11-02T09:10:25.534Z,45.73
2018-11-02T09:11:28.190Z,45.55
2018-11-02T09:12:30.894Z,45.39
2018-11-02T09:13:33.907Z,45.34
2018-11-02T09:14:36.552Z,45.63
2018-11-02T09:15:39.203Z,45.27
2018-11-02T09:16:41.951Z,45.40
2018-11-02T09:17:44.590Z,45.56
2018-11-02T09:18:47.676Z,45.84
2018-11-02T09:19:50.230Z,45.82
2018-11-02T09:20:52.878Z,45.51
2018-11-02T09:21:55.510Z,45.31
2018-11-02T09:22:58.166Z,45.68
2018-11-02T09:24:00.839Z,45.82
2018-11-02T09:25:03.570Z,45.31
2018-11-02T09:26:06.574Z,45.72
2018-11-02T09:27:09.230Z,45.50
2018-11-02T09:28:11.959Z,45.52
2018-11-02T09:29:14.860Z,45.93
2018-11-02T09:30:17.534Z,45.59
2018-11-02T09:31:20.198Z,45.49
2018-11-02T09:32:22.822Z,45.53
2018-11-02T09:33:25.464Z,45.52
2018-11-02T09:34:28.109Z,46.05
2018-11-02T09:35:30.794Z,45.91
2018-11-02T09:36:33.478Z,45.55
2018-11-02T09:37:36.162Z,45.63
2018-11-02T09:38:39.263Z,46.01
2018-11-02T09:39:42.262Z,45.78
2018-11-02T09:40:44.914Z,45.64
2018-11-02T09:41:47.579Z,45.89
2018-11-02T09:42:50.410Z,45.57
2018-11-02T09:43:52.950Z,45.83
2018-11-02T09:44:55.898Z,45.75
2018-11-02T09:45:58.550Z,46.20
2018-11-02T09:47:01.210Z,45.75
2018-11-02T09:48:04.162Z,45.61
2018-11-02T09:49:06.822Z,45.57
2018-11-02T09:50:10.586Z,46.00
2018-11-02T09:51:13.266Z,45.78
2018-11-02T09:52:15.906Z,46.30
2018-11-02T09:53:18.562Z,46.00
2018-11-02T09:54:21.208Z,45.80
2018-11-02T09:55:24.007Z,46.24
2018-11-02T09:56:26.806Z,45.68
2018-11-02T09:57:29.489Z,46.26
2018-11-02T09:58:32.169Z,45.77
2018-11-02T09:59:34.837Z,45.82
2018-11-02T10:00:37.763Z,46.35
2018-11-02T10:01:40.430Z,45.70
2018-11-02T10:02:43.086Z,45.99
2018-11-02T10:03:45.758Z,46.40
2018-11-02T10:04:48.650Z,45.91
2018-11-02T10:05:51.347Z,45.91
2018-11-02T10:06:54.035Z,46.14
2018-11-02T10:07:56.750Z,46.28
2018-11-02T10:08:59.541Z,46.07
2018-11-02T10:10:02.214Z,46.45
2018-11-02T10:11:05.289Z,46.26
2018-11-02T10:12:07.962Z,46.42
2018-11-02T10:13:10.663Z,45.86
2018-11-02T10:14:13.382Z,46.13
2018-11-02T10:15:16.329Z,45.99
2018-11-02T10:16:19.305Z,46.51
2018-11-02T10:17:22.007Z,45.95
2018-11-02T10:18:24.658Z,46.10
2018-11-02T10:19:27.363Z,45.96
2018-11-02T10:20:30.030Z,46.06
2018-11-02T10:21:33.002Z,46.50
2018-11-02T10:22:35.754Z,46.34
2018-11-02T10:23:38.429Z,46.01
2018-11-02T10:24:41.102Z,46.36
2018-11-02T10:25:43.764Z,45.97
2018-11-02T10:26:46.569Z,46.40
2018-11-02T10:27:49.370Z,46.51
2018-11-02T10:28:52.266Z,46.47
2018-11-02T10:29:55.075Z,46.01
2018-11-02T10:30:57.852Z,46.62
2018-11-02T10:32:00.918Z,46.35
2018-11-02T10:33:03.693Z,46.31
2018-11-02T10:34:06.457Z,46.51
2018-11-02T10:35:09.354Z,46.41
2018-11-02T10:36:12.085Z,46.06
2018-11-02T10:37:15.149Z,46.42
2018-11-02T10:38:17.926Z,46.50
2018-11-02T10:39:20.680Z,46.17
2018-11-02T10:40:23.339Z,46.10
2018-11-02T10:41:31.541Z,45.98
2018-11-02T10:42:34.666Z,46.44
2018-11-02T10:43:37.502Z,46.42
2018-11-02T10:44:43.473Z,46.28
2018-11-02T10:45:46.958Z,46.45
2018-11-02T10:46:49.770Z,46.09
2018-11-02T10:47:52.826Z,46.00
2018-11-02T10:48:55.496Z,45.95
2018-11-02T10:49:58.170Z,46.52
2018-11-02T10:51:00.875Z,46.35
2018-11-02T10:52:03.649Z,46.02
2018-11-02T10:53:06.682Z,46.00
2018-11-02T10:54:09.398Z,46.06
2018-11-02T10:55:12.086Z,46.49
2018-11-02T10:56:14.792Z,46.45
2018-11-02T10:57:17.467Z,46.06
2018-11-02T10:58:20.538Z,46.37
2018-11-02T10:59:23.210Z,46.63
2018-11-02T11:00:31.499Z,46.61
2018-11-02T11:01:39.627Z,46.47
2018-11-02T11:02:42.338Z,46.17
2018-11-02T11:03:45.342Z,46.22
2018-11-02T11:04:48.030Z,46.03
2018-11-02T11:05:50.706Z,46.45
2018-11-02T11:06:53.421Z,46.03
2018-11-02T11:07:56.223Z,46.45
2018-11-02T11:08:59.198Z,46.02
2018-11-02T11:10:01.864Z,46.50
2018-11-02T11:11:04.820Z,46.28
2018-11-02T11:12:07.708Z,46.59
2018-11-02T11:13:10.535Z,46.40
2018-11-02T11:14:13.006Z,46.20
2018-11-02T11:15:15.668Z,46.22
2018-11-02T11:16:18.346Z,46.08
2018-11-02T11:17:21.013Z,46.22
2018-11-02T11:18:23.740Z,46.49
2018-11-02T11:19:26.714Z,46.46
2018-11-02T11:20:29.398Z,46.49
2018-11-02T11:21:32.108Z,46.30
2018-11-02T11:22:34.778Z,46.30
2018-11-02T11:23:37.438Z,46.19
2018-11-02T11:24:40.458Z,46.63
2018-11-02T11:25:43.122Z,46.17
2018-11-02T11:26:45.798Z,46.15
2018-11-02T11:27:48.462Z,45.89
2018-11-02T11:28:51.147Z,46.41
2018-11-02T11:29:54.206Z,46.20
2018-11-02T11:30:56.895Z,46.13
2018-11-02T11:31:59.566Z,46.67
2018-11-02T11:33:02.239Z,46.75
2018-11-02T11:34:05.776Z,46.52
2018-11-02T11:35:10.342Z,46.40
2018-11-02T11:36:13.019Z,46.43
2018-11-02T11:37:15.695Z,46.35
2018-11-02T11:38:18.420Z,46.71
2018-11-02T11:39:21.264Z,46.40
2018-11-02T11:40:24.274Z,46.54
2018-11-02T11:41:26.962Z,46.30
2018-11-02T11:42:29.646Z,46.69
2018-11-02T11:43:32.361Z,46.23
2018-11-02T11:44:35.082Z,46.58
2018-11-02T11:45:38.130Z,46.19
2018-11-02T11:46:40.817Z,46.65
2018-11-02T11:47:43.526Z,46.33
2018-11-02T11:48:46.353Z,46.76
2018-11-02T11:49:48.916Z,46.74
2018-11-02T11:50:51.898Z,46.31
2018-11-02T11:51:54.589Z,46.27
2018-11-02T11:52:57.274Z,46.77
2018-11-02T11:53:59.945Z,46.37
2018-11-02T11:55:02.627Z,46.33
2018-11-02T11:56:06.454Z,46.80
2018-11-02T11:57:09.166Z,46.65
2018-11-02T11:58:11.843Z,46.68
2018-11-02T11:59:14.546Z,46.40
2018-11-02T12:00:19.654Z,46.57
2018-11-02T12:01:22.370Z,47.04
2018-11-02T12:02:25.141Z,46.53
2018-11-02T12:03:27.770Z,46.53
2018-11-02T12:04:30.585Z,46.74
2018-11-02T12:05:33.178Z,46.32
2018-11-02T12:06:36.211Z,46.74
2018-11-02T12:07:39.064Z,46.70
2018-11-02T12:08:41.711Z,46.54
2018-11-02T12:09:44.383Z,46.54
2018-11-02T12:10:47.066Z,46.40
2018-11-02T12:11:49.991Z,46.60
2018-11-02T12:12:53.018Z,46.90
2018-11-02T12:13:55.693Z,46.63
2018-11-02T12:14:58.370Z,46.62
2018-11-02T12:16:01.065Z,46.78
2018-11-02T12:17:04.050Z,46.67
2018-11-02T12:18:06.735Z,46.91
2018-11-02T12:19:09.418Z,46.57
2018-11-02T12:20:28.310Z,46.86
2018-11-02T12:21:30.993Z,46.42
2018-11-02T12:22:34.063Z,46.92
2018-11-02T12:23:36.727Z,46.47
2018-11-02T12:24:39.401Z,46.77
2018-11-02T12:25:42.138Z,46.77
2018-11-02T12:26:44.792Z,46.66
2018-11-02T12:27:47.807Z,46.67
2018-11-02T12:28:50.535Z,46.71
2018-11-02T12:29:53.160Z,46.50
2018-11-02T12:30:55.835Z,46.49
2018-11-02T12:31:58.494Z,46.90
2018-11-02T12:33:01.445Z,46.81
2018-11-02T12:34:04.118Z,46.54
2018-11-02T12:35:07.642Z,46.56
2018-11-02T12:36:10.321Z,46.82
2018-11-02T12:37:13.039Z,46.94
2018-11-02T12:38:15.718Z,46.92
2018-11-02T12:39:18.378Z,46.94
2018-11-02T12:40:22.104Z,46.55
2018-11-02T12:41:24.911Z,46.95
2018-11-02T12:42:27.578Z,46.52
2018-11-02T12:43:30.353Z,46.81
2018-11-02T12:44:32.986Z,46.96
2018-11-02T12:45:35.624Z,46.55
2018-11-02T12:46:38.290Z,46.38
2018-11-02T12:47:41.328Z,46.74
2018-11-02T12:48:44.596Z,46.77
2018-11-02T12:49:47.425Z,46.43
2018-11-02T12:50:49.711Z,46.83
2018-11-02T12:51:52.394Z,46.87
2018-11-02T12:52:56.519Z,46.97
2018-11-02T12:53:59.548Z,46.83
2018-11-02T12:55:02.206Z,46.44
2018-11-02T12:56:04.861Z,46.30
2018-11-02T12:57:07.514Z,46.57
2018-11-02T12:58:10.191Z,46.87
2018-11-02T12:59:12.978Z,46.95
2018-11-02T13:00:17.042Z,46.64
2018-11-02T13:01:19.694Z,46.91
2018-11-02T13:02:22.342Z,46.93
2018-11-02T13:03:24.985Z,46.39
2018-11-02T13:04:27.978Z,46.91
2018-11-02T13:05:30.638Z,46.84
2018-11-02T13:06:33.288Z,46.50
2018-11-02T13:07:36.009Z,46.46
2018-11-02T13:08:38.792Z,46.51
2018-11-02T13:09:41.896Z,46.70
2018-11-02T13:10:44.494Z,46.50
2018-11-02T13:11:47.151Z,46.61
2018-11-02T13:12:50.069Z,46.87
2018-11-02T13:13:53.158Z,46.84
2018-11-02T13:14:56.087Z,46.64
2018-11-02T13:15:58.760Z,47.01
2018-11-02T13:17:01.731Z,47.50
2018-11-02T13:18:04.600Z,48.02
2018-11-02T13:19:07.336Z,48.27
2018-11-02T13:20:10.912Z,47.64
2018-11-02T13:21:13.518Z,47.39
2018-11-02T13:22:16.181Z,47.25
2018-11-02T13:23:18.842Z,47.47
2018-11-02T13:24:21.490Z,47.52
2018-11-02T13:25:24.174Z,47.38
2018-11-02T13:26:26.975Z,46.98
2018-11-02T13:27:29.498Z,47.25
2018-11-02T13:28:32.199Z,46.84
2018-11-02T13:29:34.870Z,47.03